Tiempo atmosférico en la estación meteorológica de Mogán, Puerto, Las Palmas (10 m.)



Fecha
DESCASC
Temp. máxima en grados centígrados (hora)
DESCASC
Temp. mínima en grados centígrados (hora)
DESCASC
Temp. media en grados centígrados
DESCASC
Racha de viento máxima en m/sg (hora)
DESCASC
Velocidad máxima media en intervalos de 10 minutos(hora)
DESCASC
Precipitaciones diarias en mm
DESCASC
Precipitaciones de 00:00 a 06:00 en mm
DESCASC
Precipitaciones de 06:00 a 12:00 en mm
DESCASC
Precipitaciones de 12:00 a 18:00 en mm
DESCASC
Precipitaciones de 18:00 a 24:00 en mm
DESCASC
24-12-2020 22.7 (01:00) 19.8 (00:00) 21.3 18.89 (05:00) 10.28 (14:10) -- -- -- -- --
25-12-2020 24.6 (11:30) 19.7 (00:00) 22.2 15 (05:20) 10 (12:10) -- -- -- -- --
08-01-2021 22.6 (13:10) 17.1 (00:00) 19.9 16.11 (06:00) 9.44 (06:00) -- -- -- -- --
23-12-2020 22.8 (12:00) 17 (00:00) 19.9 14.72 (13:20) 8.33 (12:50) -- -- -- -- --
07-01-2021 22.3 (13:20) 19.8 (00:00) 21 11.94 (21:20) 8.06 (21:20) -- -- -- -- --
19-01-2021 20.8 (11:50) 11.9 (00:00) 16.3 9.17 (12:50) 7.78 (12:50) -- -- -- -- --
06-01-2021 21.6 (11:30) 19.1 (00:00) 20.4 10.83 (14:20) 7.78 (14:30) -- -- -- -- --
03-01-2021 20.4 (12:10) 15.7 (00:00) 18 8.61 (20:00) 6.94 (18:30) -- -- -- -- --
13-01-2021 21.2 (12:10) 14.5 (00:00) 17.9 8.33 (15:50) 6.67 (15:20) -- -- -- -- --
09-01-2021 19.4 (13:30) 15.7 (00:00) 17.5 13.61 (15:30) 6.67 (05:40) -- -- -- -- --
15-01-2021 21.5 (11:20) 13.6 (00:00) 17.6 8.33 (15:20) 6.39 (15:20) -- -- -- -- --
11-01-2021 20.9 (12:50) 13.1 (00:00) 17 10.28 (16:10) 6.39 (16:10) -- -- -- -- --
04-01-2021 19.5 (22:20) 17.6 (00:00) 18.6 7.5 (12:00) 6.11 (11:50) -- -- -- -- --
26-12-2020 22.2 (12:10) 16.2 (00:00) 19.2 7.22 (03:20) 6.11 (12:20) -- -- -- -- --
10-01-2021 20.2 (13:30) 14.1 (05:20) 17.2 12.5 (15:10) 5.83 (17:00) -- -- -- -- --
12-01-2021 20.4 (10:40) 14.7 (00:00) 17.5 9.17 (05:40) 5.83 (05:40) -- -- -- -- --
30-12-2020 22.6 (12:00) 15.5 (00:00) 19.1 6.67 (18:30) 5.56 (18:30) -- -- -- -- --
16-01-2021 22.2 (12:20) 13.6 (00:00) 17.9 6.94 (15:10) 5.28 (15:20) -- -- -- -- --
18-01-2021 20.8 (11:10) 11.9 (00:00) 16.3 6.39 (08:30) 5.28 (08:00) -- -- -- -- --
14-01-2021 19.4 (13:30) 13.7 (06:00) 16.5 7.5 (12:10) 5.28 (12:00) -- -- -- -- --
05-01-2021 23 (13:20) 18.3 (00:00) 20.6 7.78 (16:20) 5 (16:10) -- -- -- -- --
17-01-2021 20.8 (12:30) 13.8 (00:00) 17.3 7.22 (18:00) 5 (14:00) -- -- -- -- --
20-01-2021 21.3 (15:00) 13.1 (00:00) 17.2 6.11 (07:30) 4.72 (06:40) -- -- -- -- --
21-01-2021 22.4 (11:00) 13.9 (00:00) 18.1 5.83 (07:40) 4.72 (07:30) -- -- -- -- --
31-12-2020 21.5 (10:40) 14.9 (00:00) 18.2 7.22 (21:20) 4.72 (18:40) -- -- -- -- --
29-12-2020 22.8 (11:20) 15.5 (00:00) 19.1 5.83 (08:10) 4.72 (06:40) -- -- -- -- --
01-01-2021 21.5 (13:00) 14.6 (00:00) 18.1 6.39 (13:40) 4.44 (05:10) -- -- -- -- --
02-01-2021 22 (12:20) 15.5 (00:00) 18.8 5.56 (16:40) 4.17 (07:40) -- -- -- -- --
28-12-2020 23.4 (13:40) 15.1 (00:00) 19.3 5.28 (04:40) 4.17 (04:10) -- -- -- -- --
27-12-2020 23.3 (14:00) 16.5 (00:00) 19.9 6.11 (22:20) 3.89 (06:50) -- -- -- -- --

Gráficas

Temp. máximas Temp. mínimas Temp. medias Precipitaciones Rachas de viento máximas Velocidades máximas media en intervalos de 10 minutos

Datos horarios

Fecha y hora oficial Temperatura (ºC) Velocidad del viento (km/h) Dirección del viento Racha (km/h) Dirección de racha Precipitación (mm) Presión (hPa) Tendencia (hPa) Humedad (%)
2021-01-21 23:00:00 18.4 10 Norte 14 Norte 0 -- -- 75
2021-01-21 22:00:00 19.3 8 Oeste 14 Oeste 0 -- -- 78
2021-01-21 21:00:00 19.6 12 Oeste 20 Oeste 0 -- -- 77
2021-01-21 20:00:00 19.5 9 Oeste 14 Oeste 0 -- -- 78
2021-01-21 19:00:00 19 11 Sudoeste 17 Sudoeste 0 -- -- 76
2021-01-21 18:00:00 19.9 10 Sudoeste 14 Oeste 0 -- -- 67
2021-01-21 17:00:00 20.7 9 Oeste 13 Oeste 0 -- -- 65
2021-01-21 16:00:00 20.3 8 Sudoeste 15 Oeste 0 -- -- 65
2021-01-21 15:00:00 20.3 9 Sudoeste 15 Sudoeste 0 -- -- 66
2021-01-21 14:00:00 20.8 8 Sudoeste 14 Oeste 0 -- -- 65
2021-01-21 13:00:00 21.4 8 Oeste 15 Oeste 0 -- -- 64
2021-01-21 12:00:00 20.5 9 Sudoeste 15 Sudoeste 0 -- -- 64
2021-01-21 11:00:00 21.7 3 Sur 12 Norte 0 -- -- 62
2021-01-21 10:00:00 16.8 9 Norte 18 Norte 0 -- -- 67
2021-01-21 09:00:00 15 15 Norte 20 Norte 0 -- -- 70
2021-01-21 08:00:00 14.5 15 Norte 21 Norte 0 -- -- 72
2021-01-21 07:00:00 14.5 15 Norte 20 Norte 0 -- -- 72
2021-01-21 06:00:00 14.2 15 Norte 19 Norte 0 -- -- 74
2021-01-21 05:00:00 14.4 16 Norte 18 Norte 0 -- -- 72
2021-01-21 04:00:00 14.7 15 Norte 20 Norte 0 -- -- 72
2021-01-21 03:00:00 14.8 14 Norte 19 Norte 0 -- -- 73
2021-01-21 02:00:00 14.9 14 Norte 18 Norte 0 -- -- 75
2021-01-21 01:00:00 14.9 14 Norte 18 Norte 0 -- -- 75
2021-01-21 00:00:00 14.8 13 Norte 15 Norte 0 -- -- 75
2021-01-20 23:00:00 15.4 11 Norte 15 Norte 0 -- -- 73
2021-01-20 22:00:00 16.1 10 Norte 12 Norte 0 -- -- 71
2021-01-20 21:00:00 16.9 5 Nordeste 7 Nordeste 0 -- -- 68
2021-01-20 20:00:00 17.5 5 Oeste 12 Oeste 0 -- -- 67
2021-01-20 19:00:00 17.7 6 Oeste 9 Oeste 0 -- -- 66
2021-01-20 18:00:00 19.5 5 Oeste 10 Sudoeste 0 -- -- 62
2021-01-20 17:00:00 19.7 6 Sudoeste 13 Oeste 0 -- -- 61
2021-01-20 16:00:00 19.9 7 Sudoeste 11 Sudoeste 0 -- -- 58
2021-01-20 15:00:00 21.2 7 Sur 12 Sur 0 -- -- 57
2021-01-20 14:00:00 20.2 7 Sudoeste 19 Sudeste 0 -- -- 59
2021-01-20 13:00:00 19.3 12 Sudeste 15 Sudeste 0 -- -- 59
2021-01-20 12:00:00 19.1 10 Sudeste 17 Sudeste 0 -- -- 61
2021-01-20 11:00:00 18.2 13 Sudeste 16 Sudeste 0 -- -- 65
2021-01-20 10:00:00 15.3 12 Norte 19 Norte 0 -- -- 59
2021-01-20 09:00:00 14 14 Norte 19 Norte 0 -- -- 63
2021-01-20 08:00:00 13.4 15 Norte 22 Norte 0 -- -- 66
2021-01-20 07:00:00 13.3 17 Norte 20 Norte 0 -- -- 69
2021-01-20 06:00:00 14.1 15 Norte 21 Norte 0 -- -- 70
2021-01-20 05:00:00 13.8 17 Norte 20 Norte 0 -- -- 72
2021-01-20 04:00:00 14.4 14 Norte 18 Norte 0 -- -- 73
2021-01-20 03:00:00 14.6 14 Norte 20 Norte 0 -- -- 71
2021-01-20 02:00:00 14.3 14 Norte 18 Norte 0 -- -- 70
2021-01-20 01:00:00 14.8 14 Norte 17 Norte 0 -- -- 69
2021-01-20 00:00:00 15.6 10 Norte 14 Norte 0 -- -- 69
2021-01-19 23:00:00 16.1 10 Norte 13 Norte 0 -- -- 69
2021-01-19 22:00:00 17.7 9 Sudeste 14 Sudeste 0 -- -- 69
2021-01-19 21:00:00 17.5 5 Sudeste 9 Sudeste 0 -- -- 67
2021-01-19 20:00:00 17.3 4 Sur 14 Este 0 -- -- 67
2021-01-19 19:00:00 17.6 5 Sudeste 9 Sudoeste 0 -- -- 66
2021-01-19 18:00:00 18.9 5 Sudoeste 14 Sur 0 -- -- 62
2021-01-19 17:00:00 18.9 12 Sur 24 Sudeste 0 -- -- 64
2021-01-19 16:00:00 18.9 18 Sudeste 25 Sudeste 0 -- -- 65
2021-01-19 15:00:00 18.6 19 Sudeste 32 Sudeste 0 -- -- 63
2021-01-19 14:00:00 18.2 27 Sudeste 33 Sudeste 0 -- -- 65
2021-01-19 13:00:00 18.9 27 Sudeste 33 Sudeste 0 -- -- 61
2021-01-19 12:00:00 20.2 9 Sur 17 Sur 0 -- -- 56
2021-01-19 11:00:00 19.9 4 Sur 17 Norte 0 -- -- 58
2021-01-19 10:00:00 15.4 14 Norte 20 Norte 0 -- -- 50
2021-01-19 09:00:00 13 15 Norte 20 Nordeste 0 -- -- 51
2021-01-19 08:00:00 12.5 18 Norte 22 Norte 0 -- -- 50
2021-01-19 07:00:00 12.2 18 Norte 21 Norte 0 -- -- 50
2021-01-19 06:00:00 12.2 15 Norte 18 Norte 0 -- -- 51
2021-01-19 05:00:00 13.2 14 Norte 20 Norte 0 -- -- 54
2021-01-19 04:00:00 12.9 15 Norte 19 Norte 0 -- -- 60
2021-01-19 03:00:00 13.3 16 Norte 19 Norte 0 -- -- 62
2021-01-19 02:00:00 13.7 15 Norte 18 Norte 0 -- -- 64
2021-01-19 01:00:00 14.9 14 Norte 17 Norte 0 -- -- 63
2021-01-19 00:00:00 14.8 15 Norte 17 Norte 0 -- -- 64
2021-01-18 23:00:00 15.1 13 Norte 15 Norte 0 -- -- 64
2021-01-18 22:00:00 15.5 12 Norte 15 Norte 0 -- -- 62
2021-01-18 21:00:00 16.2 11 Norte 13 Norte 0 -- -- 61
2021-01-18 20:00:00 18 6 Oeste 11 Oeste 0 -- -- 59
2021-01-18 19:00:00 18.2 6 Oeste 14 Oeste 0 -- -- 57
2021-01-18 18:00:00 18.7 9 Oeste 16 Noroeste 0 -- -- 56
2021-01-18 17:00:00 19.1 12 Oeste 17 Noroeste 0 -- -- 57
2021-01-18 16:00:00 19.3 12 Oeste 18 Oeste 0 -- -- 56
2021-01-18 15:00:00 19.3 11 Oeste 17 Oeste 0 -- -- 57
2021-01-18 14:00:00 20.4 10 Oeste 16 Oeste 0 -- -- 55
2021-01-18 13:00:00 19.3 12 Oeste 20 Oeste 0 -- -- 56
2021-01-18 12:00:00 19 13 Oeste 18 Oeste 0 -- -- 55
2021-01-18 11:00:00 20.1 2 Noroeste 18 Norte 0 -- -- 50
2021-01-18 10:00:00 14.9 15 Norte 22 Norte 0 -- -- 44
2021-01-18 09:00:00 13.7 18 Norte 23 Norte 0 -- -- 40
2021-01-18 08:00:00 12.3 19 Norte 22 Norte 0 -- -- 39
2021-01-18 07:00:00 12.8 16 Norte 21 Norte 0 -- -- 38
2021-01-18 06:00:00 12.5 15 Norte 21 Norte 0 -- -- 39
2021-01-18 05:00:00 12.6 15 Norte 18 Norte 0 -- -- 40
2021-01-18 04:00:00 13 15 Norte 20 Norte 0 -- -- 44
2021-01-18 03:00:00 13.1 17 Norte 22 Norte 0 -- -- 53
2021-01-18 02:00:00 13.6 16 Norte 21 Norte 0 -- -- 61
2021-01-18 01:00:00 14.2 14 Norte 19 Norte 0 -- -- 63
2021-01-18 00:00:00 14.7 13 Norte 19 Norte 0 -- -- 66
2021-01-17 23:00:00 14.8 14 Norte 17 Nordeste 0 -- -- 67
2021-01-17 22:00:00 15.7 11 Nordeste 14 Norte 0 -- -- 67
2021-01-17 21:00:00 16 9 Norte 12 Norte 0 -- -- 65
2021-01-17 20:00:00 17.4 0 Calma 13 Oeste 0 -- -- 62
2021-01-17 19:00:00 18 9 Oeste 23 Oeste 0 -- -- 61
2021-01-17 18:00:00 18.3 16 Oeste 26 Oeste 0 -- -- 61
2021-01-17 17:00:00 18.6 14 Oeste 22 Noroeste 0 -- -- 61
2021-01-17 16:00:00 19.1 13 Oeste 23 Oeste 0 -- -- 60
2021-01-17 15:00:00 18.9 15 Oeste 24 Oeste 0 -- -- 59
2021-01-17 14:00:00 18.6 18 Oeste 24 Oeste 0 -- -- 56
2021-01-17 13:00:00 19.2 14 Oeste 21 Oeste 0 -- -- 55
2021-01-17 12:00:00 19.3 9 Sudoeste 14 Oeste 0 -- -- 55
2021-01-17 11:00:00 20.3 5 Sur 15 Nordeste 0 -- -- 54
2021-01-17 10:00:00 17 11 Norte 20 Norte 0 -- -- 59
2021-01-17 09:00:00 15.1 14 Norte 20 Norte 0 -- -- 59
2021-01-17 08:00:00 14.1 15 Norte 19 Norte 0 -- -- 60
2021-01-17 07:00:00 14.2 14 Norte 19 Norte 0 -- -- 61
2021-01-17 06:00:00 14.9 12 Norte 17 Norte 0 -- -- 61
2021-01-17 05:00:00 15.5 12 Norte 18 Norte 0 -- -- 60
2021-01-17 04:00:00 15.5 12 Norte 16 Norte 0 -- -- 60
2021-01-17 03:00:00 16 11 Norte 16 Norte 0 -- -- 60
2021-01-17 02:00:00 16 13 Norte 17 Nordeste 0 -- -- 60
2021-01-17 01:00:00 16.5 12 Norte 19 Nordeste 0 -- -- 60
2021-01-17 00:00:00 17.3 8 Norte 17 Nordeste 0 -- -- 59
2021-01-16 23:00:00 17 8 Norte 16 Norte 0 -- -- 60
2021-01-16 22:00:00 16.8 9 Norte 17 Norte 0 -- -- 61
2021-01-16 21:00:00 16.7 10 Norte 15 Norte 0 -- -- 61
2021-01-16 20:00:00 18.3 10 Oeste 15 Oeste 0 -- -- 60
2021-01-16 19:00:00 18.3 10 Sudoeste 15 Sur 0 -- -- 59
2021-01-16 18:00:00 19.6 8 Sur 13 Sur 0 -- -- 52
2021-01-16 17:00:00 20.4 6 Sur 19 Oeste 0 -- -- 52
2021-01-16 16:00:00 19.5 15 Sudoeste 25 Oeste 0 -- -- 54
2021-01-16 15:00:00 19.4 13 Oeste 21 Oeste 0 -- -- 51
2021-01-16 14:00:00 19.4 14 Oeste 23 Oeste 0 -- -- 52
2021-01-16 13:00:00 20.7 4 Sur 10 Sur 0 -- -- 51
2021-01-16 12:00:00 21.2 3 Sur 13 Noroeste 0 -- -- 51
2021-01-16 11:00:00 19.7 5 Oeste 16 Norte 0 -- -- 54
2021-01-16 10:00:00 15.6 12 Norte 20 Norte 0 -- -- 56
2021-01-16 09:00:00 14.3 14 Norte 21 Norte 0 -- -- 60
2021-01-16 08:00:00 13.8 15 Norte 19 Norte 0 -- -- 61
2021-01-16 07:00:00 14.1 14 Norte 19 Norte 0 -- -- 60
2021-01-16 06:00:00 14.1 14 Norte 20 Norte 0 -- -- 60
2021-01-16 05:00:00 14.3 15 Norte 19 Norte 0 -- -- 61
2021-01-16 04:00:00 14.5 16 Norte 20 Norte 0 -- -- 60
2021-01-16 03:00:00 14.9 13 Norte 17 Norte 0 -- -- 60
2021-01-16 02:00:00 15.4 13 Norte 17 Norte 0 -- -- 60
2021-01-16 01:00:00 15.4 12 Norte 17 Norte 0 -- -- 60
2021-01-16 00:00:00 16.1 13 Norte 17 Norte 0 -- -- 58
2021-01-15 23:00:00 16.1 12 Norte 16 Norte 0 -- -- 56
2021-01-15 22:00:00 17.3 13 Nordeste 22 Nordeste 0 -- -- 54
2021-01-15 21:00:00 17.2 5 Norte 19 Sur 0 -- -- 58
2021-01-15 20:00:00 18.3 12 Sur 17 Sur 0 -- -- 56
2021-01-15 19:00:00 18.5 9 Sur 12 Sur 0 -- -- 55
2021-01-15 18:00:00 19.3 9 Sur 15 Sur 0 -- -- 52
2021-01-15 17:00:00 19.8 9 Sudoeste 18 Sudoeste 0 -- -- 51
2021-01-15 16:00:00 19.2 17 Sudoeste 30 Sudoeste 0 -- -- 53
2021-01-15 15:00:00 19.1 22 Sudoeste 29 Sudoeste 0 -- -- 53
2021-01-15 14:00:00 19.2 14 Sudoeste 19 Sudoeste 0 -- -- 50
2021-01-15 13:00:00 19.9 10 Oeste 19 Oeste 0 -- -- 50
2021-01-15 12:00:00 18.8 11 Oeste 19 Noroeste 0 -- -- 53
2021-01-15 11:00:00 19.5 5 Norte 18 Nordeste 0 -- -- 50
2021-01-15 10:00:00 16.4 11 Nordeste 21 Norte 0 -- -- 55
2021-01-15 09:00:00 14.2 16 Norte 21 Norte 0 -- -- 58
2021-01-15 08:00:00 13.9 15 Norte 20 Norte 0 -- -- 59
2021-01-15 07:00:00 13.9 15 Norte 21 Norte 0 -- -- 59
2021-01-15 06:00:00 13.8 17 Norte 20 Norte 0 -- -- 59
2021-01-15 05:00:00 14.2 14 Norte 20 Norte 0 -- -- 57
2021-01-15 04:00:00 13.8 17 Norte 21 Norte 0 -- -- 59
2021-01-15 03:00:00 14.1 15 Norte 22 Norte 0 -- -- 59
2021-01-15 02:00:00 14.7 14 Norte 19 Norte 0 -- -- 58
2021-01-15 01:00:00 14.6 14 Norte 18 Norte 0 -- -- 58
2021-01-15 00:00:00 14.9 13 Norte 18 Norte 0 -- -- 57
2021-01-14 23:00:00 15.4 13 Norte 18 Norte 0 -- -- 59
2021-01-14 22:00:00 17.1 5 Norte 10 Norte 0 -- -- 58
2021-01-14 21:00:00 17.7 5 Este 11 Sudeste 0 -- -- 54
2021-01-14 20:00:00 17.8 4 Este 13 Este 0 -- -- 54
2021-01-14 19:00:00 18 4 Este 8 Oeste 0 -- -- 54
2021-01-14 18:00:00 18.2 4 Sur 11 Sudeste 0 -- -- 54
2021-01-14 17:00:00 18 6 Sudeste 13 Este 0 -- -- 53
2021-01-14 16:00:00 18.3 9 Este 23 Sudeste 0 -- -- 53
2021-01-14 15:00:00 18.4 17 Sudeste 24 Este 0 -- -- 53
2021-01-14 14:00:00 18.7 12 Sudeste 21 Sudeste 0 -- -- 51
2021-01-14 13:00:00 18.9 13 Este 27 Sudeste 0 -- -- 51
2021-01-14 12:00:00 18.8 19 Sudeste 24 Sudeste 0 -- -- 53
2021-01-14 11:00:00 18.5 18 Sudeste 23 Sudeste 0 -- -- 51
2021-01-14 10:00:00 16.8 9 Norte 18 Norte 0 -- -- 49
2021-01-14 09:00:00 16.1 12 Norte 19 Norte 0 -- -- 50
2021-01-14 08:00:00 16 12 Norte 20 Norte 0 -- -- 50
2021-01-14 07:00:00 14.7 15 Norte 21 Norte 0 -- -- 52
2021-01-14 06:00:00 14.3 16 Norte 22 Norte 0 -- -- 54
2021-01-14 05:00:00 15 13 Norte 16 Norte 0 -- -- 53
2021-01-14 04:00:00 15.3 9 Norte 12 Nordeste 0 -- -- 50
2021-01-14 03:00:00 16.1 8 Norte 11 Norte 0 -- -- 48
2021-01-14 02:00:00 16.4 6 Nordeste 17 Norte 0 -- -- 45
2021-01-14 01:00:00 16.8 13 Norte 23 Nordeste 0 -- -- 47
2021-01-14 00:00:00 16.5 11 Norte 17 Nordeste 0 -- -- 49
2021-01-13 23:00:00 15.8 13 Norte 19 Norte 0 -- -- 49
2021-01-13 22:00:00 17.2 10 Norte 19 Nordeste 0 -- -- 47
2021-01-13 21:00:00 17.8 8 Norte 14 Nordeste 0 -- -- 47
2021-01-13 20:00:00 18.7 9 Este 16 Sudeste 0 -- -- 47
2021-01-13 19:00:00 19.3 6 Sudoeste 15 Sudoeste 0 -- -- 47
2021-01-13 18:00:00 20.3 9 Oeste 24 Oeste 0 -- -- 46
2021-01-13 17:00:00 20.3 21 Oeste 27 Oeste 0 -- -- 50
2021-01-13 16:00:00 20 22 Oeste 30 Oeste 0 -- -- 50
2021-01-13 15:00:00 19.4 23 Sudoeste 30 Sudoeste 0 -- -- 54
2021-01-13 14:00:00 18.9 15 Sudoeste 21 Sudoeste 0 -- -- 55
2021-01-13 13:00:00 19.6 10 Sudoeste 16 Sudoeste 0 -- -- 53
2021-01-13 12:00:00 20.7 6 Sur 21 Este 0 -- -- 53
2021-01-13 11:00:00 19 4 Sur 12 Norte 0 -- -- 55
2021-01-13 10:00:00 16.5 8 Norte 13 Norte 0 -- -- 56
2021-01-13 09:00:00 15.8 10 Norte 15 Norte 0 -- -- 59
2021-01-13 08:00:00 14.6 11 Norte 15 Norte 0 -- -- 60
2021-01-13 07:00:00 15.2 10 Norte 14 Norte 0 -- -- 60
2021-01-13 06:00:00 15.4 12 Norte 17 Norte 0 -- -- 60
2021-01-13 05:00:00 15.7 9 Norte 17 Norte 0 -- -- 60
2021-01-13 04:00:00 15.9 10 Norte 15 Norte 0 -- -- 58
2021-01-13 03:00:00 16.5 9 Norte 12 Norte 0 -- -- 58
2021-01-13 02:00:00 15.9 6 Norte 15 Norte 0 -- -- 59
2021-01-13 01:00:00 16 10 Norte 15 Norte 0 -- -- 59
2021-01-13 00:00:00 16 12 Norte 16 Norte 0 -- -- 60
2021-01-12 23:00:00 16.4 7 Norte 14 Norte 0 -- -- 61
2021-01-12 22:00:00 15.8 11 Norte 17 Norte 0 -- -- 64
2021-01-12 21:00:00 15.6 10 Norte 13 Nordeste 0 -- -- 64
2021-01-12 20:00:00 16.8 9 Norte 13 Nordeste 0 -- -- 61
2021-01-12 19:00:00 17.4 8 Oeste 15 Oeste 0 -- -- 59
2021-01-12 18:00:00 18 4 Sudoeste 14 Sudeste 0 -- -- 59
2021-01-12 17:00:00 17.4 10 Sur 22 Sudeste 0 -- -- 60
2021-01-12 16:00:00 17.9 19 Sudeste 26 Este 0 -- -- 55
2021-01-12 15:00:00 18.4 10 Sudeste 28 Nordeste 0 -- -- 53
2021-01-12 14:00:00 19 12 Sudeste 21 Sudeste 0 -- -- 56
2021-01-12 13:00:00 18.2 13 Sudoeste 22 Oeste 0 -- -- 53
2021-01-12 12:00:00 18.5 13 Oeste 20 Oeste 0 -- -- 50
2021-01-12 11:00:00 19 9 Oeste 11 Oeste 0 -- -- 51
2021-01-12 10:00:00 18.1 7 Sudeste 18 Sudeste 0 -- -- 51
2021-01-12 09:00:00 16.3 4 Nordeste 9 Norte 0 -- -- 55
2021-01-12 08:00:00 16.1 5 Norte 12 Norte 0 -- -- 56
2021-01-12 07:00:00 15.7 9 Norte 24 Nordeste 0 -- -- 55
2021-01-12 06:00:00 16.6 14 Nordeste 33 Este 0 -- -- 52
2021-01-12 05:00:00 17.2 13 Este 22 Nordeste 0 -- -- 49
2021-01-12 04:00:00 15.1 6 Norte 14 Norte 0 -- -- 56
2021-01-12 03:00:00 15.6 10 Norte 14 Norte 0 -- -- 56
2021-01-12 02:00:00 16 8 Norte 13 Norte 0 -- -- 55
2021-01-12 01:00:00 15.9 8 Norte 10 Norte 0 -- -- 54
2021-01-12 00:00:00 16 6 Norte 11 Noroeste 0 -- -- 54
2021-01-11 23:00:00 17.5 9 Nordeste 17 Este 0 -- -- 52
2021-01-11 22:00:00 16.3 5 Norte 11 Norte 0 -- -- 54
2021-01-11 21:00:00 17 4 Nordeste 12 Nordeste 0 -- -- 54
2021-01-11 20:00:00 17 10 Norte 17 Norte 0 -- -- 55
2021-01-11 19:00:00 16.7 4 Nordeste 28 Norte 0 -- -- 54
2021-01-11 18:00:00 18.6 13 Norte 23 Norte 0 -- -- 47
2021-01-11 17:00:00 18 14 Nordeste 37 Nordeste 0 -- -- 48
2021-01-11 16:00:00 17.7 21 Norte 34 Norte 0 -- -- 51
2021-01-11 15:00:00 19.7 5 Norte 25 Nordeste 0 -- -- 45
2021-01-11 14:00:00 19.2 8 Noroeste 32 Norte 0 -- -- 48
2021-01-11 13:00:00 19.4 8 Noroeste 27 Norte 0 -- -- 44
2021-01-11 12:00:00 18.7 8 Norte 19 Nordeste 0 -- -- 48
2021-01-11 11:00:00 17.1 12 Noroeste 22 Norte 0 -- -- 49
2021-01-11 10:00:00 16.4 7 Norte 17 Norte 0 -- -- 53
2021-01-11 09:00:00 13.3 10 Norte 17 Norte 0 -- -- 59
2021-01-11 08:00:00 13.9 10 Norte 14 Norte 0 -- -- 56
2021-01-11 07:00:00 13.6 10 Norte 20 Norte 0 -- -- 58
2021-01-11 06:00:00 14.6 6 Norte 21 Norte 0 -- -- 58
2021-01-11 05:00:00 14.2 11 Norte 17 Nordeste 0 -- -- 64
2021-01-11 04:00:00 14.3 6 Norte 10 Nordeste 0 -- -- 66
2021-01-11 03:00:00 14.5 6 Nordeste 13 Nordeste 0 -- -- 69
2021-01-11 02:00:00 14.6 9 Norte 13 Norte 0 -- -- 69
2021-01-11 01:00:00 14.6 5 Nordeste 28 Norte 0 -- -- 69
2021-01-11 00:00:00 16.3 9 Norte 43 Norte 0 -- -- 60
2021-01-10 23:00:00 17.1 12 Noroeste 27 Norte 0 -- -- 55
2021-01-10 22:00:00 17.7 8 Noroeste 27 Nordeste 0 -- -- 49
2021-01-10 21:00:00 17.9 13 Norte 33 Nordeste 0 -- -- 48
2021-01-10 20:00:00 17.9 14 Norte 40 Norte 0 -- -- 47
2021-01-10 19:00:00 17.8 17 Norte 37 Norte 0 -- -- 49
2021-01-10 18:00:00 18.4 17 Norte 39 Nordeste 0 -- -- 48
2021-01-10 17:00:00 19.3 21 Norte 45 Norte 0 -- -- 44
2021-01-10 16:00:00 19.5 14 Norte 45 Norte 0 -- -- 42
2021-01-10 15:00:00 19.1 20 Norte 39 Norte 0 -- -- 45
2021-01-10 14:00:00 19.1 13 Norte 39 Norte 0 -- -- 46
2021-01-10 13:00:00 19.8 8 Norte 39 Nordeste 0 -- -- 45
2021-01-10 12:00:00 18.6 17 Norte 38 Nordeste 0 -- -- 50
2021-01-10 11:00:00 18.8 6 Norte 23 Oeste 0 -- -- 49
2021-01-10 10:00:00 17.8 10 Norte 17 Norte 0 -- -- 53
2021-01-10 09:00:00 16.5 7 Norte 22 Noroeste 0 -- -- 61
2021-01-10 08:00:00 15 8 Norte 24 Norte 0 -- -- 66
2021-01-10 07:00:00 14.8 6 Norte 18 Norte 0 -- -- 66
2021-01-10 06:00:00 14.6 11 Norte 24 Norte 0.2 -- -- 66
2021-01-10 05:00:00 14.7 12 Norte 29 Norte 0 -- -- 62
2021-01-10 04:00:00 16.1 8 Norte 20 Nordeste 0 -- -- 55
2021-01-10 03:00:00 15.9 5 Norte 11 Norte 0 -- -- 54
2021-01-10 02:00:00 15.3 4 Norte 16 Norte 0 -- -- 59
2021-01-10 01:00:00 15.1 3 Nordeste 30 Noroeste 0 -- -- 57
2021-01-10 00:00:00 16.6 8 Noroeste 27 Noroeste 0 -- -- 49
2021-01-09 23:00:00 16.6 6 Noroeste 25 Noroeste 0 -- -- 48
2021-01-09 22:00:00 16.7 6 Nordeste 25 Norte 0 -- -- 44
2021-01-09 21:00:00 16.9 9 Norte 37 Norte 0 -- -- 44
2021-01-09 20:00:00 17.2 20 Norte 39 Noroeste 0 -- -- 43
2021-01-09 19:00:00 16.8 7 Norte 34 Noroeste 0 -- -- 45
2021-01-09 18:00:00 17.3 20 Norte 48 Norte 0 -- -- 44
2021-01-09 17:00:00 18.1 21 Norte 46 Norte 0 -- -- 43
2021-01-09 16:00:00 18.3 14 Norte 49 Norte 0 -- -- 42
2021-01-09 15:00:00 18.6 14 Norte 47 Nordeste 0 -- -- 40
2021-01-09 14:00:00 19 17 Norte 44 Norte 0 -- -- 42
2021-01-09 13:00:00 18.4 18 Norte 46 Noroeste 0 -- -- 42
2021-01-09 12:00:00 18.7 14 Norte 40 Norte 0 -- -- 44
2021-01-09 11:00:00 17.9 11 Norte 42 Norte 0 -- -- 43
2021-01-09 10:00:00 17.5 10 Nordeste 32 Nordeste 0 -- -- 48
2021-01-09 09:00:00 17.1 13 Norte 39 Norte 0 -- -- 47
2021-01-09 08:00:00 16.4 14 Norte 32 Norte 0 -- -- 48
2021-01-09 07:00:00 16.2 16 Norte 39 Norte 0 -- -- 48
2021-01-09 06:00:00 16.2 23 Norte 42 Nordeste 0 -- -- 48
2021-01-09 05:00:00 16.5 17 Norte 42 Norte 0 -- -- 49
2021-01-09 04:00:00 16 15 Norte 29 Noroeste 0 -- -- 51
2021-01-09 03:00:00 16.9 12 Norte 33 Norte 0 -- -- 48
2021-01-09 02:00:00 17.2 14 Norte 31 Norte 0 -- -- 45
2021-01-09 01:00:00 17.3 12 Norte 35 Norte 0 -- -- 47
2021-01-09 00:00:00 17.5 16 Noroeste 32 Noroeste 0 -- -- 48
2021-01-08 23:00:00 17.6 11 Norte 29 Noroeste 0 -- -- 48
2021-01-08 22:00:00 17.8 9 Norte 29 Norte 0 -- -- 49
2021-01-08 21:00:00 17.9 11 Noroeste 35 Norte 0 -- -- 48
2021-01-08 20:00:00 17.8 17 Norte 45 Norte 0 -- -- 48
2021-01-08 19:00:00 18.2 17 Norte 33 Norte 0 -- -- 49
2021-01-08 18:00:00 19.1 17 Nordeste 30 Nordeste 0 -- -- 48
2021-01-08 17:00:00 20.4 11 Norte 34 Norte 0 -- -- 45
2021-01-08 16:00:00 20.6 14 Norte 40 Norte 0 -- -- 44
2021-01-08 15:00:00 20.6 20 Norte 35 Nordeste 0 -- -- 48
2021-01-08 14:00:00 20.6 17 Norte 40 Noroeste 0 -- -- 50
2021-01-08 13:00:00 21.7 12 Oeste 23 Oeste 0 -- -- 49
2021-01-08 12:00:00 20.9 17 Oeste 31 Oeste 0 -- -- 49
2021-01-08 11:00:00 21.9 9 Noroeste 30 Norte 0 -- -- 49
2021-01-08 10:00:00 20.3 13 Norte 27 Norte 0 -- -- 53
2021-01-08 09:00:00 19.4 10 Norte 17 Oeste 0 -- -- 61
2021-01-08 08:00:00 19.3 4 Norte 24 Norte 0 -- -- 61
2021-01-08 07:00:00 19.6 10 Norte 45 Oeste 0 -- -- 64
2021-01-08 06:00:00 20 34 Oeste 58 Oeste 0 -- -- 66
2021-01-08 05:00:00 19.8 26 Oeste 42 Oeste 0 -- -- 72
2021-01-08 04:00:00 20.1 30 Oeste 41 Oeste 0 -- -- 75
2021-01-08 03:00:00 20 26 Oeste 44 Oeste 0 -- -- 76
2021-01-08 02:00:00 20.2 26 Oeste 43 Oeste 0 -- -- 78
2021-01-08 01:00:00 20.4 21 Oeste 39 Oeste 0 -- -- 80
2021-01-08 00:00:00 20.5 23 Oeste 32 Oeste 0 -- -- 80
2021-01-07 23:00:00 20.4 22 Sudoeste 32 Sudoeste 0 -- -- 83
2021-01-07 22:00:00 20.3 17 Oeste 43 Sudoeste 0.1 -- -- 82
2021-01-07 21:00:00 20.6 17 Sudoeste 30 Oeste 0.2 -- -- 84
2021-01-07 20:00:00 20.8 17 Oeste 32 Sudoeste 0 -- -- 82
2021-01-07 19:00:00 20.9 23 Sudoeste 32 Sudoeste 0 -- -- 82
2021-01-07 18:00:00 21 22 Sudoeste 31 Sudoeste 0 -- -- 81
2021-01-07 17:00:00 21 21 Sudoeste 35 Sudoeste 0 -- -- 79
2021-01-07 16:00:00 21.7 13 Oeste 30 Oeste 0 -- -- 79
2021-01-07 15:00:00 21.4 18 Oeste 26 Oeste 0 -- -- 78
2021-01-07 14:00:00 21.9 14 Oeste 26 Oeste 0 -- -- 78
2021-01-07 13:00:00 21.8 17 Oeste 39 Oeste 0 -- -- 78
2021-01-07 12:00:00 20.9 22 Oeste 32 Oeste 0 -- -- 82
2021-01-07 11:00:00 20.8 21 Sudoeste 33 Sudoeste 0 -- -- 83
2021-01-07 10:00:00 20.9 17 Sudoeste 30 Sudoeste 0 -- -- 83
2021-01-07 09:00:00 20.5 15 Sudoeste 22 Oeste 0 -- -- 84
2021-01-07 08:00:00 20.3 14 Sudoeste 36 Sudoeste 2.5 -- -- 87
2021-01-07 07:00:00 20.5 17 Sudoeste 23 Sur 0 -- -- 84
2021-01-07 06:00:00 20.3 16 Sudoeste 30 Sudoeste 0 -- -- 84
2021-01-07 05:00:00 20.3 20 Sudoeste 28 Sudoeste 0.4 -- -- 86
2021-01-07 04:00:00 20.3 11 Sudoeste 18 Oeste 0 -- -- 86
2021-01-07 03:00:00 20.4 10 Oeste 22 Oeste 0 -- -- 86
2021-01-07 02:00:00 20.3 19 Oeste 28 Oeste 0 -- -- 86
2021-01-07 01:00:00 20.5 15 Oeste 21 Oeste 0 -- -- 86
2021-01-07 00:00:00 20.5 10 Oeste 18 Oeste 0 -- -- 86
2021-01-06 23:00:00 20.4 8 Oeste 19 Oeste 0 -- -- 86
2021-01-06 22:00:00 20.5 12 Oeste 17 Oeste 0 -- -- 86
2021-01-06 21:00:00 20.5 10 Noroeste 19 Oeste 0 -- -- 83
2021-01-06 20:00:00 20.8 12 Oeste 31 Noroeste 0 -- -- 81
2021-01-06 19:00:00 20.7 12 Noroeste 27 Oeste 0 -- -- 81
2021-01-06 18:00:00 20.7 9 Noroeste 21 Oeste 0 -- -- 83
2021-01-06 17:00:00 20.3 13 Noroeste 28 Oeste 0.3 -- -- 86
2021-01-06 16:00:00 21 14 Oeste 29 Oeste 0 -- -- 83
2021-01-06 15:00:00 20.9 21 Oeste 39 Sudoeste 0 -- -- 84
2021-01-06 14:00:00 21 22 Oeste 34 Oeste 0 -- -- 84
2021-01-06 13:00:00 21.1 16 Oeste 28 Sudoeste 0 -- -- 83
2021-01-06 12:00:00 21.1 19 Oeste 30 Sudoeste 0 -- -- 83
2021-01-06 11:00:00 21.2 21 Sudoeste 32 Oeste 0 -- -- 84
2021-01-06 10:00:00 20.7 18 Sudoeste 28 Sudoeste 0 -- -- 86
2021-01-06 09:00:00 20.7 10 Sudoeste 24 Sudoeste 0 -- -- 86
2021-01-06 08:00:00 20.5 17 Sudoeste 24 Sudoeste 0.1 -- -- 87
2021-01-06 07:00:00 20.4 11 Sudoeste 18 Sudoeste 0 -- -- 86
2021-01-06 06:00:00 20.2 15 Sudoeste 24 Sudoeste 0 -- -- 86
2021-01-06 05:00:00 20.2 8 Oeste 21 Sudoeste 0 -- -- 84
2021-01-06 04:00:00 20 12 Oeste 20 Oeste 0 -- -- 84
2021-01-06 03:00:00 19.7 13 Oeste 27 Sudoeste 0 -- -- 82
2021-01-06 02:00:00 20.2 13 Sudoeste 23 Sudoeste 0 -- -- 84
2021-01-06 01:00:00 20.1 10 Oeste 22 Sudoeste 0 -- -- 84
2021-01-06 00:00:00 20.1 7 Sudoeste 18 Oeste 0 -- -- 84
2021-01-05 23:00:00 20.1 12 Sudoeste 17 Sudoeste 0 -- -- 84
2021-01-05 22:00:00 20.2 6 Oeste 14 Sudoeste 0 -- -- 83
2021-01-05 21:00:00 20.2 11 Sudoeste 20 Oeste 0 -- -- 83
2021-01-05 20:00:00 20.5 13 Oeste 19 Sudoeste 0 -- -- 82
2021-01-05 19:00:00 20.6 9 Oeste 18 Oeste 0 -- -- 79
2021-01-05 18:00:00 20.7 8 Oeste 14 Oeste 0 -- -- 77
2021-01-05 17:00:00 21.7 10 Oeste 28 Oeste 0 -- -- 77
2021-01-05 16:00:00 21.3 17 Oeste 22 Oeste 0 -- -- 77
2021-01-05 15:00:00 21.4 12 Oeste 26 Oeste 0 -- -- 78
2021-01-05 14:00:00 21.2 14 Oeste 22 Oeste 0 -- -- 78
2021-01-05 13:00:00 21.4 10 Oeste 22 Noroeste 0 -- -- 73
2021-01-05 12:00:00 21.5 13 Noroeste 23 Noroeste 0 -- -- 75
2021-01-05 11:00:00 20.5 13 Noroeste 21 Noroeste 0 -- -- 78
2021-01-05 10:00:00 20.6 10 Noroeste 19 Oeste 0 -- -- 76
2021-01-05 09:00:00 20 5 Norte 16 Oeste 0 -- -- 81
2021-01-05 08:00:00 20.2 8 Noroeste 16 Noroeste 0 -- -- 81
2021-01-05 07:00:00 19.5 3 Norte 16 Oeste 0 -- -- 83
2021-01-05 06:00:00 19.9 5 Oeste 21 Oeste 0 -- -- 83
2021-01-05 05:00:00 20 7 Oeste 16 Oeste 0 -- -- 85
2021-01-05 04:00:00 20.1 9 Oeste 17 Oeste 0 -- -- 84
2021-01-05 03:00:00 20.1 11 Oeste 17 Oeste 0 -- -- 83
2021-01-05 02:00:00 19.5 9 Norte 17 Noroeste 0 -- -- 80
2021-01-05 01:00:00 18.6 6 Norte 17 Nordeste 0 -- -- 82
2021-01-05 00:00:00 18.4 4 Nordeste 8 Sudoeste 0 -- -- 80
2021-01-04 23:00:00 19.2 4 Sudoeste 10 Sudoeste 0 -- -- 75
2021-01-04 22:00:00 18.8 5 Norte 12 Oeste 0 -- -- 72
2021-01-04 21:00:00 18.8 6 Oeste 12 Nordeste 0 -- -- 71
2021-01-04 20:00:00 19 0 Calma 10 Este 0 -- -- 71
2021-01-04 19:00:00 19.1 8 Este 11 Este 0 -- -- 71
2021-01-04 18:00:00 18.7 2 Sudeste 14 Este 0 -- -- 71
2021-01-04 17:00:00 19.2 7 Este 17 Este 0 -- -- 71
2021-01-04 16:00:00 18.7 13 Sudeste 17 Sudeste 0 -- -- 70
2021-01-04 15:00:00 18.8 11 Sudeste 18 Sudeste 0 -- -- 68
2021-01-04 14:00:00 19.1 14 Sudeste 25 Sudeste 0 -- -- 67
2021-01-04 13:00:00 18.6 18 Sudeste 24 Sur 0 -- -- 67
2021-01-04 12:00:00 19.1 21 Sudeste 27 Este 0 -- -- 67
2021-01-04 11:00:00 18.8 20 Sudeste 25 Sudeste 0 -- -- 67
2021-01-04 10:00:00 18.9 15 Este 22 Este 0 -- -- 66
2021-01-04 09:00:00 18.4 8 Este 21 Este 0 -- -- 65
2021-01-04 08:00:00 17.9 11 Este 24 Este 0 -- -- 65
2021-01-04 07:00:00 18 10 Nordeste 24 Este 0 -- -- 65
2021-01-04 06:00:00 17.9 8 Nordeste 21 Este 0 -- -- 65
2021-01-04 05:00:00 18.2 10 Este 16 Nordeste 0 -- -- 64
2021-01-04 04:00:00 17.7 5 Nordeste 18 Este 0 -- -- 64
2021-01-04 03:00:00 18 6 Nordeste 19 Este 0 -- -- 64
2021-01-04 02:00:00 17.8 13 Nordeste 21 Este 0 -- -- 62
2021-01-04 01:00:00 18.3 8 Nordeste 23 Este 0 -- -- 61
2021-01-04 00:00:00 17.8 4 Este 22 Sudeste 0 -- -- 60
2021-01-03 23:00:00 18 15 Este 26 Este 0 -- -- 62
2021-01-03 22:00:00 18.4 16 Este 23 Sudeste 0 -- -- 60
2021-01-03 21:00:00 18.4 12 Sudeste 28 Este 0 -- -- 59
2021-01-03 20:00:00 18.4 22 Este 31 Este 0 -- -- 60
2021-01-03 19:00:00 18.4 20 Sudeste 31 Sudeste 0 -- -- 61
2021-01-03 18:00:00 18.7 22 Sudeste 27 Sudeste 0 -- -- 61
2021-01-03 17:00:00 18.7 21 Sudeste 25 Sudeste 0 -- -- 60
2021-01-03 16:00:00 18.8 18 Sudeste 26 Sudeste 0 -- -- 61
2021-01-03 15:00:00 19.2 18 Sudeste 26 Sudeste 0 -- -- 60
2021-01-03 14:00:00 19.4 5 Sudoeste 10 Sur 0 -- -- 58
2021-01-03 13:00:00 19.6 5 Sudoeste 11 Sudoeste 0 -- -- 57
2021-01-03 12:00:00 20.3 2 Sudeste 8 Este 0 -- -- 56
2021-01-03 11:00:00 19.1 0 Calma 8 Norte 0 -- -- 59
2021-01-03 10:00:00 18.2 6 Norte 14 Norte 0 -- -- 59
2021-01-03 09:00:00 16.7 12 Norte 17 Norte 0 -- -- 61
2021-01-03 08:00:00 16.1 12 Norte 16 Norte 0 -- -- 61
2021-01-03 07:00:00 15.8 12 Norte 15 Norte 0 -- -- 61
2021-01-03 06:00:00 16.1 11 Norte 15 Norte 0 -- -- 62
2021-01-03 05:00:00 16.3 12 Norte 14 Norte 0 -- -- 61
2021-01-03 04:00:00 17 9 Norte 14 Norte 0 -- -- 60
2021-01-03 03:00:00 16.5 11 Norte 13 Norte 0 -- -- 61
2021-01-03 02:00:00 16.7 10 Norte 13 Norte 0 -- -- 61
2021-01-03 01:00:00 16.9 10 Norte 14 Norte 0 -- -- 60
2021-01-03 00:00:00 17.1 9 Norte 14 Norte 0 -- -- 61
2021-01-02 23:00:00 17.3 9 Norte 12 Norte 0 -- -- 60
2021-01-02 22:00:00 17.1 10 Norte 13 Norte 0 -- -- 61
2021-01-02 21:00:00 17.1 9 Norte 12 Norte 0 -- -- 60
2021-01-02 20:00:00 18.3 5 Noroeste 14 Oeste 0 -- -- 58
2021-01-02 19:00:00 18.5 9 Oeste 15 Oeste 0 -- -- 58
2021-01-02 18:00:00 18.6 8 Oeste 17 Oeste 0 -- -- 57
2021-01-02 17:00:00 19 13 Oeste 20 Oeste 0 -- -- 57
2021-01-02 16:00:00 19.3 12 Oeste 17 Oeste 0 -- -- 57
2021-01-02 15:00:00 19.2 9 Oeste 15 Noroeste 0 -- -- 59
2021-01-02 14:00:00 19.8 7 Oeste 13 Oeste 0 -- -- 57
2021-01-02 13:00:00 20.2 9 Oeste 14 Oeste 0 -- -- 56